createdAt,value
2022-12-19T00:00:16.040Z,70.44
2022-12-19T00:02:43.714Z,69.91
2022-12-19T00:05:13.362Z,68.64
2022-12-19T00:07:40.890Z,69.80
2022-12-19T00:10:09.181Z,69.66
2022-12-19T00:12:36.724Z,70.09
2022-12-19T00:15:06.059Z,70.71
2022-12-19T00:17:34.018Z,70.14
2022-12-19T00:20:04.474Z,70.58
2022-12-19T00:22:31.992Z,69.36
2022-12-19T00:24:59.590Z,69.62
2022-12-19T00:27:27.077Z,69.59
2022-12-19T00:29:54.543Z,71.45
2022-12-19T00:32:23.405Z,69.43
2022-12-19T00:34:50.921Z,71.46
2022-12-19T00:37:18.440Z,70.28
2022-12-19T00:39:45.934Z,70.75
2022-12-19T00:42:13.457Z,70.43
2022-12-19T00:44:40.940Z,72.12
2022-12-19T00:47:08.455Z,72.05
2022-12-19T00:49:37.314Z,70.80
2022-12-19T00:52:05.834Z,70.41
2022-12-19T00:54:33.468Z,71.11
2022-12-19T00:57:01.321Z,70.40
2022-12-19T00:59:28.951Z,71.12
2022-12-19T01:01:56.609Z,70.80
2022-12-19T01:04:29.488Z,70.77
2022-12-19T01:07:02.658Z,69.90
2022-12-19T01:09:30.906Z,70.57
2022-12-19T01:12:15.880Z,71.76
2022-12-19T01:14:43.623Z,70.63
2022-12-19T01:17:11.146Z,70.12
2022-12-19T01:19:43.626Z,70.73
2022-12-19T01:22:13.156Z,70.45
2022-12-19T01:24:40.964Z,70.08
2022-12-19T01:27:08.497Z,70.62
2022-12-19T01:29:43.860Z,70.97
2022-12-19T01:32:20.527Z,71.77
2022-12-19T01:34:48.023Z,72.94
2022-12-19T01:37:19.644Z,72.12
2022-12-19T01:39:47.359Z,71.36
2022-12-19T01:42:15.862Z,71.32
2022-12-19T01:45:04.333Z,71.70
2022-12-19T01:47:32.380Z,72.81
2022-12-19T01:50:00.478Z,72.65
2022-12-19T01:52:29.417Z,72.64
2022-12-19T01:54:56.946Z,72.54
2022-12-19T01:57:26.338Z,72.58
2022-12-19T01:59:55.581Z,73.13
2022-12-19T02:02:25.689Z,73.96
2022-12-19T02:04:53.328Z,75.04
2022-12-19T02:07:22.082Z,74.83
2022-12-19T02:09:57.542Z,75.77
2022-12-19T02:12:29.017Z,76.99
2022-12-19T02:15:02.844Z,77.49
2022-12-19T02:17:37.238Z,79.88
2022-12-19T02:20:24.973Z,79.11
2022-12-19T02:23:00.645Z,78.50
2022-12-19T02:25:48.825Z,79.35
2022-12-19T02:28:32.713Z,81.60
2022-12-19T02:31:16.597Z,79.88
2022-12-19T02:33:46.901Z,81.07
2022-12-19T02:36:18.174Z,82.23
2022-12-19T02:38:49.950Z,83.81
2022-12-19T02:41:22.000Z,84.38
2022-12-19T02:43:58.932Z,81.20
2022-12-19T02:46:29.480Z,83.33
2022-12-19T02:48:57.883Z,84.05
2022-12-19T02:51:25.454Z,83.87
2022-12-19T02:53:53.089Z,84.25
2022-12-19T02:56:29.043Z,85.17
2022-12-19T02:59:03.790Z,84.69
2022-12-19T03:01:39.732Z,85.32
2022-12-19T03:04:13.369Z,83.14
2022-12-19T03:06:43.794Z,87.23
2022-12-19T03:09:16.897Z,87.15
2022-12-19T03:11:47.685Z,87.87
2022-12-19T03:14:17.426Z,88.73
2022-12-19T03:16:46.474Z,87.15
2022-12-19T03:19:15.183Z,87.41
2022-12-19T03:21:44.512Z,87.58
2022-12-19T03:24:13.057Z,89.06
2022-12-19T03:26:45.001Z,89.84
2022-12-19T03:29:15.813Z,89.27
2022-12-19T03:31:45.165Z,89.48
2022-12-19T03:34:17.058Z,89.56
2022-12-19T03:36:46.207Z,89.38
2022-12-19T03:39:14.242Z,89.34
2022-12-19T03:42:01.313Z,88.92
2022-12-19T03:44:31.762Z,90.04
2022-12-19T03:47:01.892Z,88.87
2022-12-19T03:49:30.884Z,89.48
2022-12-19T03:52:06.853Z,89.24
2022-12-19T03:54:37.251Z,88.91
2022-12-19T03:57:07.372Z,87.66
2022-12-19T03:59:36.962Z,88.61
2022-12-19T04:02:05.421Z,90.20
2022-12-19T04:04:36.892Z,91.21
2022-12-19T04:07:05.024Z,90.94
2022-12-19T04:09:33.487Z,90.05
2022-12-19T04:12:04.009Z,90.05
2022-12-19T04:14:32.782Z,88.94
2022-12-19T04:17:06.795Z,89.78
2022-12-19T04:19:42.482Z,90.97
2022-12-19T04:22:13.084Z,90.38
2022-12-19T04:24:42.360Z,89.18
2022-12-19T04:27:12.127Z,90.46
2022-12-19T04:29:40.322Z,90.59
2022-12-19T04:32:09.330Z,91.95
2022-12-19T04:34:42.696Z,91.45
2022-12-19T04:37:11.726Z,92.55
2022-12-19T04:39:39.276Z,93.82
2022-12-19T04:42:06.851Z,91.88
2022-12-19T04:44:34.368Z,90.96
2022-12-19T04:47:01.881Z,91.80
2022-12-19T04:49:29.598Z,91.60
2022-12-19T04:51:58.461Z,91.73
2022-12-19T04:54:26.307Z,92.29
2022-12-19T04:56:54.330Z,91.75
2022-12-19T04:59:21.839Z,91.99
2022-12-19T05:01:49.492Z,92.20
2022-12-19T05:04:17.141Z,92.99
2022-12-19T05:06:44.769Z,93.43
2022-12-19T05:09:13.802Z,93.13
2022-12-19T05:11:41.321Z,92.24
2022-12-19T05:14:08.870Z,94.50
2022-12-19T05:16:36.339Z,95.27
2022-12-19T05:19:04.040Z,95.50
2022-12-19T05:21:31.762Z,95.21
2022-12-19T05:24:00.752Z,93.83
2022-12-19T05:26:29.890Z,93.95
2022-12-19T05:28:57.699Z,92.55
2022-12-19T05:31:25.802Z,92.73
2022-12-19T05:33:53.714Z,91.48
2022-12-19T05:36:21.477Z,93.08
2022-12-19T05:38:49.388Z,94.14
2022-12-19T05:41:19.190Z,94.26
2022-12-19T05:43:53.570Z,93.59
2022-12-19T05:46:22.430Z,95.75
2022-12-19T05:48:50.877Z,94.22
2022-12-19T05:51:19.018Z,94.98
2022-12-19T05:53:46.846Z,93.57
2022-12-19T05:56:15.494Z,92.30
2022-12-19T05:58:43.383Z,91.85
2022-12-19T06:01:13.309Z,92.22
2022-12-19T06:03:40.921Z,94.10
2022-12-19T06:06:09.895Z,91.63
2022-12-19T06:08:37.581Z,95.68
2022-12-19T06:11:06.801Z,95.38
2022-12-19T06:13:34.368Z,93.75
2022-12-19T06:16:02.607Z,95.08
2022-12-19T06:18:32.222Z,94.65
2022-12-19T06:21:00.107Z,93.24
2022-12-19T06:23:27.794Z,92.31
2022-12-19T06:25:57.098Z,91.21
2022-12-19T06:28:25.029Z,92.82
2022-12-19T06:30:53.000Z,92.55
2022-12-19T06:33:20.928Z,93.43
2022-12-19T06:35:49.950Z,92.54
2022-12-19T06:38:18.447Z,93.43
2022-12-19T06:41:03.584Z,92.77
2022-12-19T06:43:31.340Z,92.43
2022-12-19T06:45:59.204Z,92.00
2022-12-19T06:48:28.628Z,91.55
2022-12-19T06:50:57.801Z,92.11
2022-12-19T06:53:25.700Z,92.23
2022-12-19T06:55:56.305Z,92.19
2022-12-19T06:58:24.614Z,91.25
2022-12-19T07:00:52.957Z,93.26
2022-12-19T07:03:25.332Z,92.70
2022-12-19T07:05:53.906Z,94.47
2022-12-19T07:08:23.258Z,93.58
2022-12-19T07:10:51.068Z,94.23
2022-12-19T07:13:18.958Z,93.69
2022-12-19T07:15:46.757Z,93.46
2022-12-19T07:18:15.020Z,93.11
2022-12-19T07:20:45.197Z,94.83
2022-12-19T07:23:17.631Z,96.33
2022-12-19T07:25:46.966Z,96.57
2022-12-19T07:28:15.778Z,97.38
2022-12-19T07:30:43.583Z,96.80
2022-12-19T07:33:13.562Z,98.10
2022-12-19T07:35:43.512Z,96.80
2022-12-19T07:38:11.299Z,96.05
2022-12-19T07:40:39.115Z,96.74
2022-12-19T07:43:08.257Z,95.93
2022-12-19T07:45:38.374Z,95.68
2022-12-19T07:48:07.771Z,97.34
2022-12-19T07:50:35.853Z,95.48
2022-12-19T07:53:03.644Z,96.36
2022-12-19T07:55:31.552Z,96.36
2022-12-19T07:58:00.375Z,95.71
2022-12-19T08:00:30.655Z,96.72
2022-12-19T08:02:59.742Z,96.95
2022-12-19T08:05:27.753Z,97.36
2022-12-19T08:07:55.558Z,98.75
2022-12-19T08:10:23.629Z,98.90
2022-12-19T08:12:51.516Z,97.78
2022-12-19T08:15:19.233Z,98.60
2022-12-19T08:17:48.401Z,97.39
2022-12-19T08:20:16.162Z,99.29
2022-12-19T08:22:43.957Z,100.00
2022-12-19T08:25:11.674Z,100.00
2022-12-19T08:27:39.723Z,99.03
2022-12-19T08:30:08.967Z,99.23
2022-12-19T08:32:36.725Z,99.09
2022-12-19T08:35:06.645Z,98.82
2022-12-19T08:37:36.300Z,99.40
2022-12-19T08:40:04.390Z,99.41
2022-12-19T08:42:32.313Z,99.38
2022-12-19T08:44:59.992Z,99.60
2022-12-19T08:47:27.723Z,100.00
2022-12-19T08:49:56.840Z,99.10
2022-12-19T08:52:25.925Z,99.98
2022-12-19T08:54:53.632Z,99.54
2022-12-19T08:57:21.352Z,100.00
2022-12-19T08:59:49.213Z,99.27
2022-12-19T09:02:18.222Z,100.00
2022-12-19T09:05:58.509Z,100.00
2022-12-19T09:07:38.703Z,99.05
2022-12-19T09:10:07.711Z,99.23
2022-12-19T09:12:35.401Z,100.00
2022-12-19T09:15:03.190Z,100.00
2022-12-19T09:17:30.975Z,100.00
2022-12-19T09:19:58.899Z,100.00
2022-12-19T09:22:27.588Z,100.00
2022-12-19T09:24:58.712Z,100.00
2022-12-19T09:27:26.466Z,99.69
2022-12-19T09:29:54.178Z,100.00
2022-12-19T09:32:21.895Z,100.00
2022-12-19T09:34:49.666Z,100.00
2022-12-19T09:37:17.915Z,100.00
2022-12-19T09:39:47.241Z,100.00
2022-12-19T09:42:42.733Z,100.00
2022-12-19T09:45:32.439Z,100.00
2022-12-19T09:48:02.222Z,100.00
2022-12-19T09:50:43.507Z,100.00
2022-12-19T09:53:19.453Z,100.00
2022-12-19T09:55:49.156Z,100.00
2022-12-19T09:58:31.694Z,100.00
2022-12-19T10:01:03.673Z,100.00
2022-12-19T10:03:40.455Z,100.00
2022-12-19T10:07:22.308Z,100.00
2022-12-19T10:10:47.447Z,100.00
2022-12-19T10:12:47.230Z,100.00
2022-12-19T10:15:07.233Z,100.00
2022-12-19T10:17:51.028Z,100.00
2022-12-19T10:20:26.767Z,100.00
2022-12-19T10:23:06.875Z,100.00
2022-12-19T10:25:43.986Z,100.00
2022-12-19T10:28:26.144Z,100.00
2022-12-19T10:31:20.966Z,100.00
2022-12-19T10:33:56.862Z,100.00
2022-12-19T10:36:48.724Z,100.00
2022-12-19T10:39:20.215Z,100.00
2022-12-19T10:41:53.752Z,100.00
2022-12-19T10:44:23.490Z,100.00
2022-12-19T10:46:54.141Z,100.00
2022-12-19T10:49:25.913Z,100.00
2022-12-19T10:51:58.923Z,100.00
2022-12-19T10:54:33.416Z,100.00
2022-12-19T10:57:19.226Z,100.00
2022-12-19T10:59:56.838Z,100.00
2022-12-19T11:02:37.047Z,100.00
2022-12-19T11:05:20.730Z,100.00
2022-12-19T11:08:01.455Z,100.00
2022-12-19T11:11:39.442Z,100.00
2022-12-19T11:19:52.784Z,100.00
2022-12-19T11:24:14.196Z,100.00
2022-12-19T11:29:19.046Z,100.00
2022-12-19T11:29:30.231Z,100.00
2022-12-19T11:30:38.266Z,100.00
2022-12-19T11:30:41.546Z,100.00
2022-12-19T11:32:10.311Z,100.00
2022-12-19T11:33:55.872Z,100.00
2022-12-19T11:36:35.077Z,100.00
2022-12-19T11:39:04.180Z,100.00
2022-12-19T11:41:38.415Z,100.00
2022-12-19T11:44:12.923Z,100.00
2022-12-19T11:46:46.132Z,100.00
2022-12-19T11:49:25.429Z,100.00
2022-12-19T11:51:59.019Z,100.00
2022-12-19T11:54:34.162Z,100.00
2022-12-19T11:57:02.130Z,100.00
2022-12-19T11:59:33.456Z,100.00
2022-12-19T12:02:21.807Z,100.00
2022-12-19T12:05:05.185Z,100.00
2022-12-19T12:07:59.430Z,100.00
2022-12-19T12:13:19.918Z,100.00
2022-12-19T12:22:14.676Z,100.00
2022-12-19T12:28:45.227Z,100.00
2022-12-19T12:31:06.984Z,100.00
2022-12-19T12:31:17.060Z,100.00
2022-12-19T12:31:55.326Z,100.00
2022-12-19T12:32:05.067Z,100.00
2022-12-19T12:35:50.918Z,100.00
2022-12-19T12:38:18.734Z,100.00
2022-12-19T12:40:55.361Z,100.00
2022-12-19T12:43:41.023Z,100.00
2022-12-19T12:46:16.633Z,100.00
2022-12-19T12:48:48.653Z,100.00
2022-12-19T12:51:18.696Z,100.00
2022-12-19T12:53:49.303Z,100.00
2022-12-19T12:56:20.321Z,100.00
2022-12-19T12:59:27.028Z,100.00
2022-12-19T13:01:56.821Z,100.00
2022-12-19T13:04:31.541Z,100.00
2022-12-19T13:07:12.840Z,100.00
2022-12-19T13:09:41.499Z,100.00
2022-12-19T13:12:38.511Z,100.00
2022-12-19T13:15:37.312Z,100.00
2022-12-19T13:18:34.929Z,100.00
2022-12-19T13:21:06.119Z,100.00
2022-12-19T13:23:46.264Z,100.00
2022-12-19T13:26:39.417Z,100.00
2022-12-19T13:29:34.978Z,100.00
2022-12-19T13:32:15.006Z,100.00
2022-12-19T13:35:17.580Z,100.00
2022-12-19T13:39:54.016Z,100.00
2022-12-19T13:40:34.429Z,100.00
2022-12-19T13:43:34.082Z,100.00
2022-12-19T13:46:05.892Z,100.00
2022-12-19T13:48:35.989Z,100.00
2022-12-19T13:51:06.615Z,100.00
2022-12-19T13:53:34.830Z,100.00
2022-12-19T13:56:04.875Z,100.00
2022-12-19T13:58:37.731Z,100.00
2022-12-19T14:01:22.256Z,100.00
2022-12-19T14:03:52.914Z,100.00
2022-12-19T14:06:22.770Z,100.00
2022-12-19T14:08:59.232Z,100.00
2022-12-19T14:13:45.125Z,100.00
2022-12-19T14:15:06.285Z,100.00
2022-12-19T14:17:39.493Z,100.00
2022-12-19T14:22:07.276Z,100.00
2022-12-19T14:23:06.468Z,100.00
2022-12-19T14:28:14.331Z,100.00
2022-12-19T14:28:33.039Z,100.00
2022-12-19T14:31:08.511Z,100.00
2022-12-19T14:34:04.125Z,100.00
2022-12-19T14:36:33.171Z,100.00
2022-12-19T14:39:25.924Z,100.00
2022-12-19T14:42:08.747Z,100.00
2022-12-19T14:52:34.174Z,100.00
2022-12-19T14:54:07.367Z,100.00
2022-12-19T14:54:14.925Z,100.00
2022-12-19T14:54:41.910Z,100.00
2022-12-19T14:59:02.304Z,100.00
2022-12-19T15:01:33.258Z,100.00
2022-12-19T15:04:52.006Z,100.00
2022-12-19T15:07:06.946Z,100.00
2022-12-19T15:11:05.181Z,100.00
2022-12-19T15:14:46.741Z,100.00
2022-12-19T15:15:59.196Z,100.00
2022-12-19T15:18:29.210Z,100.00
2022-12-19T15:21:00.197Z,100.00
2022-12-19T15:23:30.386Z,100.00
2022-12-19T15:26:04.549Z,100.00
2022-12-19T15:28:38.995Z,100.00
2022-12-19T15:31:14.920Z,100.00
2022-12-19T15:34:00.148Z,100.00
2022-12-19T15:36:30.880Z,100.00
2022-12-19T15:39:00.023Z,100.00
2022-12-19T15:41:28.683Z,100.00
2022-12-19T15:44:05.487Z,100.00
2022-12-19T15:46:33.765Z,100.00
2022-12-19T15:49:02.090Z,100.00
2022-12-19T15:51:29.940Z,100.00
2022-12-19T15:54:15.654Z,100.00
2022-12-19T15:56:51.158Z,100.00
2022-12-19T15:59:34.781Z,100.00
2022-12-19T16:02:16.121Z,100.00
2022-12-19T16:04:44.379Z,100.00
2022-12-19T16:07:16.175Z,100.00
2022-12-19T16:09:45.474Z,100.00
2022-12-19T16:12:15.998Z,100.00
2022-12-19T16:14:44.210Z,100.00
2022-12-19T16:17:16.085Z,100.00
2022-12-19T16:19:43.795Z,100.00
2022-12-19T16:22:19.033Z,100.00
2022-12-19T16:24:48.506Z,100.00
2022-12-19T16:27:23.943Z,100.00
2022-12-19T16:29:52.301Z,100.00
2022-12-19T16:32:22.411Z,100.00
2022-12-19T16:34:50.181Z,100.00
2022-12-19T16:37:17.951Z,100.00
2022-12-19T16:39:45.686Z,100.00
2022-12-19T16:42:17.165Z,100.00
2022-12-19T16:44:47.303Z,100.00
2022-12-19T16:47:16.937Z,100.00
2022-12-19T16:49:45.102Z,100.00
2022-12-19T16:52:13.325Z,100.00
2022-12-19T16:54:41.040Z,100.00
2022-12-19T16:57:20.086Z,100.00
2022-12-19T16:59:48.384Z,100.00
2022-12-19T17:02:42.034Z,100.00
2022-12-19T17:05:18.263Z,100.00
2022-12-19T17:07:46.609Z,100.00
2022-12-19T17:10:16.156Z,100.00
2022-12-19T17:12:47.673Z,100.00
2022-12-19T17:15:23.513Z,100.00
2022-12-19T17:17:53.629Z,100.00
2022-12-19T17:20:24.168Z,100.00
2022-12-19T17:22:52.233Z,100.00
2022-12-19T17:25:23.012Z,100.00
2022-12-19T17:27:53.606Z,100.00
2022-12-19T17:30:21.535Z,100.00
2022-12-19T17:32:52.211Z,100.00
2022-12-19T17:35:27.858Z,100.00
2022-12-19T17:37:57.930Z,100.00
2022-12-19T17:40:27.461Z,100.00
2022-12-19T17:42:57.336Z,100.00
2022-12-19T17:45:26.484Z,100.00
2022-12-19T17:48:02.293Z,100.00
2022-12-19T17:50:34.381Z,100.00
2022-12-19T17:53:02.097Z,100.00
2022-12-19T17:55:31.037Z,100.00
2022-12-19T17:58:01.190Z,100.00
2022-12-19T18:00:35.077Z,100.00
2022-12-19T18:03:12.021Z,100.00
2022-12-19T18:05:39.856Z,100.00
2022-12-19T18:08:20.064Z,100.00
2022-12-19T18:10:47.939Z,100.00
2022-12-19T18:13:17.237Z,100.00
2022-12-19T18:15:45.125Z,100.00
2022-12-19T18:18:14.726Z,100.00
2022-12-19T18:20:44.481Z,100.00
2022-12-19T18:23:18.519Z,100.00
2022-12-19T18:25:47.059Z,100.00
2022-12-19T18:28:15.941Z,100.00
2022-12-19T18:30:47.064Z,100.00
2022-12-19T18:33:17.570Z,100.00
2022-12-19T18:35:48.631Z,100.00
2022-12-19T18:38:18.834Z,100.00
2022-12-19T18:40:47.470Z,100.00
2022-12-19T18:43:15.816Z,100.00
2022-12-19T18:45:47.754Z,100.00
2022-12-19T18:48:24.241Z,100.00
2022-12-19T18:50:52.187Z,100.00
2022-12-19T18:53:23.159Z,100.00
2022-12-19T18:55:52.611Z,100.00
2022-12-19T18:58:21.534Z,100.00
2022-12-19T19:00:55.591Z,100.00
2022-12-19T19:03:30.583Z,100.00
2022-12-19T19:05:58.687Z,100.00
2022-12-19T19:08:31.433Z,100.00
2022-12-19T19:11:00.011Z,100.00
2022-12-19T19:13:28.358Z,100.00
2022-12-19T19:16:00.030Z,100.00
2022-12-19T19:18:31.991Z,100.00
2022-12-19T19:21:01.417Z,100.00
2022-12-19T19:23:33.511Z,100.00
2022-12-19T19:26:01.270Z,100.00
2022-12-19T19:28:29.060Z,100.00
2022-12-19T19:31:00.440Z,100.00
2022-12-19T19:33:33.541Z,100.00
2022-12-19T19:36:12.104Z,100.00
2022-12-19T19:38:43.529Z,100.00
2022-12-19T19:41:12.705Z,100.00
2022-12-19T19:43:41.364Z,100.00
2022-12-19T19:46:10.621Z,100.00
2022-12-19T19:48:42.495Z,100.00
2022-12-19T19:51:11.956Z,99.76
2022-12-19T19:53:40.234Z,99.43
2022-12-19T19:56:09.567Z,99.28
2022-12-19T19:58:37.260Z,98.52
2022-12-19T20:01:10.859Z,99.65
2022-12-19T20:03:41.917Z,98.26
2022-12-19T20:06:11.318Z,97.61
2022-12-19T20:08:40.437Z,97.45
2022-12-19T20:11:10.614Z,98.13
2022-12-19T20:13:39.009Z,98.57
2022-12-19T20:16:09.091Z,97.51
2022-12-19T20:18:39.839Z,96.51
2022-12-19T20:21:12.758Z,96.67
2022-12-19T20:23:42.289Z,96.75
2022-12-19T20:26:11.353Z,95.12
2022-12-19T20:28:45.861Z,95.28
2022-12-19T20:31:16.832Z,95.68
2022-12-19T20:33:46.203Z,95.88
2022-12-19T20:36:15.966Z,95.57
2022-12-19T20:38:43.882Z,95.95
2022-12-19T20:41:11.678Z,95.65
2022-12-19T20:43:39.847Z,96.25
2022-12-19T20:46:10.254Z,95.57
2022-12-19T20:48:38.502Z,96.26
2022-12-19T20:51:08.766Z,95.74
2022-12-19T20:53:37.602Z,96.34
2022-12-19T20:56:07.199Z,95.21
2022-12-19T20:58:37.209Z,94.70
2022-12-19T21:01:07.550Z,94.43
2022-12-19T21:03:36.724Z,95.15
2022-12-19T21:06:05.686Z,94.47
2022-12-19T21:08:35.211Z,95.11
2022-12-19T21:11:04.272Z,93.18
2022-12-19T21:13:32.181Z,93.65
2022-12-19T21:16:02.898Z,94.29
2022-12-19T21:18:31.706Z,94.34
2022-12-19T21:21:00.192Z,93.30
2022-12-19T21:23:28.468Z,94.68
2022-12-19T21:26:00.475Z,93.16
2022-12-19T21:28:29.379Z,92.92
2022-12-19T21:30:58.782Z,92.76
2022-12-19T21:33:26.738Z,94.23
2022-12-19T21:35:54.605Z,94.04
2022-12-19T21:38:23.159Z,94.59
2022-12-19T21:40:51.021Z,93.39
2022-12-19T21:43:20.103Z,93.33
2022-12-19T21:45:47.988Z,93.57
2022-12-19T21:48:15.679Z,93.34
2022-12-19T21:50:43.391Z,93.73
2022-12-19T21:53:11.073Z,93.02
2022-12-19T21:55:38.792Z,92.42
2022-12-19T21:58:06.506Z,93.13
2022-12-19T22:00:35.666Z,92.53
2022-12-19T22:03:18.825Z,92.26
2022-12-19T22:05:46.607Z,93.57
2022-12-19T22:08:14.256Z,94.30
2022-12-19T22:10:41.990Z,92.83
2022-12-19T22:13:09.910Z,93.89
2022-12-19T22:15:39.035Z,92.39
2022-12-19T22:18:06.823Z,94.08
2022-12-19T22:20:34.632Z,93.59
2022-12-19T22:23:03.388Z,93.08
2022-12-19T22:25:33.614Z,93.02
2022-12-19T22:28:01.465Z,93.01
2022-12-19T22:30:29.180Z,92.31
2022-12-19T22:32:58.233Z,93.37
2022-12-19T22:35:25.939Z,92.78
2022-12-19T22:37:53.665Z,94.04
2022-12-19T22:40:21.358Z,93.78
2022-12-19T22:42:49.066Z,92.59
2022-12-19T22:45:16.917Z,91.97
2022-12-19T22:47:44.633Z,92.23
2022-12-19T22:50:13.739Z,93.11
2022-12-19T22:52:41.485Z,91.92
2022-12-19T22:55:09.848Z,92.81
2022-12-19T22:57:37.635Z,93.19
2022-12-19T23:00:07.472Z,93.24
2022-12-19T23:02:35.369Z,93.39
2022-12-19T23:05:03.298Z,92.42
2022-12-19T23:07:32.531Z,92.08
2022-12-19T23:10:00.361Z,92.54
2022-12-19T23:12:28.298Z,94.74
2022-12-19T23:14:56.107Z,94.30
2022-12-19T23:17:23.915Z,93.15
2022-12-19T23:19:51.622Z,93.26
2022-12-19T23:22:19.350Z,93.25
2022-12-19T23:24:48.703Z,93.51
2022-12-19T23:27:16.411Z,93.68
2022-12-19T23:29:44.286Z,93.40
2022-12-19T23:32:12.128Z,93.71
2022-12-19T23:34:39.970Z,93.37
2022-12-19T23:37:12.191Z,94.70
2022-12-19T23:39:40.552Z,94.45
2022-12-19T23:42:09.810Z,93.76
2022-12-19T23:44:37.601Z,93.39
2022-12-19T23:47:05.462Z,92.80
2022-12-19T23:49:34.183Z,91.98
2022-12-19T23:52:02.072Z,93.03
2022-12-19T23:54:32.631Z,92.63
2022-12-19T23:57:00.349Z,93.63
2022-12-19T23:59:29.409Z,93.80
